createdAt,value
2022-08-11T00:02:30.003Z,18.30
2022-08-11T00:05:05.337Z,14.68
2022-08-11T00:07:34.463Z,14.05
2022-08-11T00:10:03.502Z,11.25
2022-08-11T00:12:32.515Z,16.25
2022-08-11T00:15:02.767Z,20.38
2022-08-11T00:17:33.827Z,19.20
2022-08-11T00:20:12.648Z,19.90
2022-08-11T00:22:47.434Z,14.48
2022-08-11T00:25:18.654Z,15.85
2022-08-11T00:27:48.996Z,19.92
2022-08-11T00:30:17.952Z,15.02
2022-08-11T00:32:56.189Z,14.13
2022-08-11T00:35:55.089Z,14.30
2022-08-11T00:38:23.865Z,16.48
2022-08-11T00:40:58.142Z,11.55
2022-08-11T00:43:43.000Z,10.73
2022-08-11T00:46:23.633Z,15.32
2022-08-11T00:49:05.868Z,17.40
2022-08-11T00:52:02.200Z,14.35
2022-08-11T00:54:55.993Z,14.13
2022-08-11T00:57:54.149Z,11.48
2022-08-11T01:00:24.225Z,12.63
2022-08-11T01:03:29.225Z,11.13
2022-08-11T01:06:30.131Z,14.25
2022-08-11T01:09:22.979Z,13.85
2022-08-11T01:12:24.851Z,14.23
2022-08-11T01:15:55.598Z,12.65
2022-08-11T01:19:07.184Z,12.68
2022-08-11T01:22:29.681Z,17.13
2022-08-11T01:25:57.183Z,16.42
2022-08-11T01:28:56.481Z,14.95
2022-08-11T01:31:50.729Z,18.10
2022-08-11T01:34:58.341Z,18.50
2022-08-11T01:38:02.082Z,20.95
2022-08-11T01:40:56.867Z,18.48
2022-08-11T01:44:11.360Z,15.32
2022-08-11T01:46:47.760Z,15.52
2022-08-11T01:50:06.854Z,13.98
2022-08-11T01:52:33.286Z,16.52
2022-08-11T01:55:17.707Z,15.07
2022-08-11T01:57:54.994Z,17.45
2022-08-11T02:00:30.442Z,17.95
2022-08-11T02:03:06.925Z,16.95
2022-08-11T02:05:47.211Z,21.25
2022-08-11T02:08:33.567Z,17.55
2022-08-11T02:11:35.185Z,16.13
2022-08-11T02:14:21.027Z,17.70
2022-08-11T02:17:14.085Z,15.30
2022-08-11T02:20:11.023Z,18.67
2022-08-11T02:23:07.730Z,18.38
2022-08-11T02:25:42.174Z,11.82
2022-08-11T02:28:19.750Z,13.05
2022-08-11T02:32:04.869Z,13.60
2022-08-11T02:34:23.107Z,13.27
2022-08-11T02:36:57.899Z,15.82
2022-08-11T02:39:33.179Z,18.90
2022-08-11T02:42:32.903Z,14.63
2022-08-11T02:45:18.266Z,19.42
2022-08-11T02:48:14.386Z,17.95
2022-08-11T02:50:51.128Z,15.15
2022-08-11T02:53:29.590Z,13.02
2022-08-11T02:56:08.783Z,13.20
2022-08-11T02:59:10.825Z,13.85
2022-08-11T03:01:50.305Z,14.93
2022-08-11T03:04:37.581Z,17.15
2022-08-11T03:07:28.832Z,16.92
2022-08-11T03:10:10.349Z,14.07
2022-08-11T03:13:05.459Z,12.77
2022-08-11T03:16:04.705Z,12.50
2022-08-11T03:18:42.170Z,16.42
2022-08-11T03:21:19.205Z,17.55
2022-08-11T03:23:55.334Z,13.65
2022-08-11T03:26:31.767Z,14.13
2022-08-11T03:29:10.687Z,13.52
2022-08-11T03:32:00.563Z,12.85
2022-08-11T03:34:31.329Z,14.93
2022-08-11T03:37:16.897Z,13.75
2022-08-11T03:40:00.695Z,13.82
2022-08-11T03:42:34.831Z,14.10
2022-08-11T03:45:18.209Z,15.80
2022-08-11T03:48:03.535Z,15.07
2022-08-11T03:50:58.990Z,16.95
2022-08-11T03:53:57.036Z,16.08
2022-08-11T03:57:03.353Z,14.00
2022-08-11T04:00:10.197Z,14.85
2022-08-11T04:03:10.320Z,15.27
2022-08-11T04:06:24.483Z,14.27
2022-08-11T04:09:24.943Z,16.10
2022-08-11T04:12:44.247Z,13.48
2022-08-11T04:15:48.088Z,19.92
2022-08-11T04:18:51.633Z,16.10
2022-08-11T04:21:30.473Z,19.63
2022-08-11T04:24:41.220Z,13.80
2022-08-11T04:27:37.310Z,15.95
2022-08-11T04:30:14.873Z,16.50
2022-08-11T04:33:12.678Z,14.07
2022-08-11T04:35:53.957Z,18.55
2022-08-11T04:38:39.563Z,19.00
2022-08-11T04:41:33.047Z,17.98
2022-08-11T04:44:34.830Z,12.95
2022-08-11T04:47:58.127Z,14.93
2022-08-11T04:51:16.466Z,15.38
2022-08-11T04:54:17.211Z,17.50
2022-08-11T04:57:06.805Z,14.32
2022-08-11T05:00:11.890Z,19.40
2022-08-11T05:03:28.027Z,12.00
2022-08-11T05:06:28.288Z,16.08
2022-08-11T05:09:29.531Z,16.58
2022-08-11T05:12:31.023Z,10.25
2022-08-11T05:15:18.928Z,14.00
2022-08-11T05:18:14.683Z,16.90
2022-08-11T05:21:07.839Z,17.27
2022-08-11T05:24:00.706Z,14.30
2022-08-11T05:26:58.248Z,14.20
2022-08-11T05:29:54.686Z,12.55
2022-08-11T05:32:42.611Z,15.95
2022-08-11T05:36:00.846Z,15.70
2022-08-11T05:38:20.623Z,19.55
2022-08-11T05:41:09.881Z,11.65
2022-08-11T05:44:20.474Z,14.40
2022-08-11T05:47:08.840Z,11.85
2022-08-11T05:49:57.744Z,16.10
2022-08-11T05:52:49.162Z,14.00
2022-08-11T05:56:02.330Z,16.77
2022-08-11T05:58:41.308Z,21.70
2022-08-11T06:01:14.075Z,18.38
2022-08-11T06:04:03.819Z,14.88
2022-08-11T06:06:32.658Z,15.60
2022-08-11T06:09:02.245Z,18.45
2022-08-11T06:11:43.528Z,20.13
2022-08-11T06:14:15.453Z,20.23
2022-08-11T06:16:49.682Z,13.80
2022-08-11T06:19:21.199Z,13.05
2022-08-11T06:21:52.092Z,19.13
2022-08-11T06:24:20.748Z,14.95
2022-08-11T06:29:54.406Z,17.83
2022-08-11T06:32:31.126Z,13.80
2022-08-11T06:35:16.175Z,18.52
2022-08-11T06:37:58.704Z,9.95
2022-08-11T06:40:35.892Z,13.70
2022-08-11T06:43:12.682Z,17.73
2022-08-11T06:45:51.294Z,15.38
2022-08-11T06:48:24.217Z,12.90
2022-08-11T06:51:12.003Z,12.40
2022-08-11T06:53:57.622Z,15.35
2022-08-11T06:57:12.411Z,14.63
2022-08-11T07:00:01.977Z,14.68
2022-08-11T07:02:34.841Z,15.65
2022-08-11T07:05:09.506Z,14.82
2022-08-11T07:08:44.561Z,11.75
2022-08-11T07:12:10.469Z,17.23
2022-08-11T07:15:00.978Z,13.10
2022-08-11T07:17:32.919Z,13.82
2022-08-11T07:20:21.204Z,16.17
2022-08-11T07:23:15.628Z,12.43
2022-08-11T07:26:03.551Z,15.55
2022-08-11T07:28:54.608Z,15.77
2022-08-11T07:31:29.209Z,17.35
2022-08-11T07:34:10.266Z,13.55
2022-08-11T07:36:46.991Z,16.90
2022-08-11T07:39:21.987Z,11.02
2022-08-11T07:41:52.395Z,12.27
2022-08-11T07:44:21.961Z,14.48
2022-08-11T07:47:09.174Z,15.05
2022-08-11T07:49:57.025Z,17.80
2022-08-11T07:52:33.701Z,10.00
2022-08-11T07:55:07.767Z,12.75
2022-08-11T07:58:14.304Z,17.77
2022-08-11T08:01:10.190Z,10.82
2022-08-11T08:03:58.649Z,9.38
2022-08-11T08:06:45.870Z,9.95
2022-08-11T08:09:32.463Z,8.57
2022-08-11T08:12:21.636Z,10.32
2022-08-11T08:15:08.989Z,11.77
2022-08-11T08:18:09.745Z,7.05
2022-08-11T08:20:49.748Z,11.02
2022-08-11T08:23:33.232Z,12.00
2022-08-11T08:26:03.442Z,10.95
2022-08-11T08:28:34.847Z,7.10
2022-08-11T08:31:02.671Z,9.45
2022-08-11T08:33:33.033Z,8.23
2022-08-11T08:36:12.760Z,7.25
2022-08-11T08:38:43.028Z,9.55
2022-08-11T08:41:16.269Z,8.27
2022-08-11T08:43:50.300Z,11.23
2022-08-11T08:46:23.192Z,12.35
2022-08-11T08:48:53.302Z,10.05
2022-08-11T08:52:33.205Z,8.32
2022-08-11T08:54:30.021Z,6.65
2022-08-11T08:56:59.597Z,12.18
2022-08-11T08:59:47.762Z,8.70
2022-08-11T09:02:33.652Z,11.55
2022-08-11T09:05:05.042Z,6.78
2022-08-11T09:07:38.752Z,10.27
2022-08-11T09:10:11.140Z,12.23
2022-08-11T09:12:42.336Z,5.03
2022-08-11T09:15:14.053Z,6.80
2022-08-11T09:17:47.071Z,6.30
2022-08-11T09:20:19.344Z,9.60
2022-08-11T09:24:07.100Z,8.13
2022-08-11T09:26:16.238Z,6.90
2022-08-11T09:28:45.573Z,9.85
2022-08-11T09:31:15.895Z,5.57
2022-08-11T09:33:45.835Z,6.88
2022-08-11T09:36:32.273Z,6.40
2022-08-11T09:39:21.754Z,8.23
2022-08-11T09:42:01.341Z,8.10
2022-08-11T09:44:49.951Z,7.07
2022-08-11T09:47:24.465Z,6.93
2022-08-11T09:50:00.209Z,7.25
2022-08-11T09:52:33.267Z,8.13
2022-08-11T09:55:03.360Z,6.65
2022-08-11T09:57:49.449Z,6.80
2022-08-11T10:00:18.285Z,6.93
2022-08-11T10:02:50.762Z,8.52
2022-08-11T10:05:38.431Z,7.55
2022-08-11T10:08:08.874Z,7.32
2022-08-11T10:10:38.581Z,8.05
2022-08-11T10:13:44.061Z,2.28
2022-08-11T10:16:09.193Z,3.63
2022-08-11T10:18:53.554Z,3.15
2022-08-11T10:21:29.196Z,7.32
2022-08-11T10:24:18.322Z,4.53
2022-08-11T10:26:54.539Z,4.50
2022-08-11T10:29:45.372Z,4.45
2022-08-11T10:32:57.492Z,3.45
2022-08-11T10:35:31.068Z,5.90
2022-08-11T10:38:08.003Z,3.53
2022-08-11T10:41:10.701Z,5.28
2022-08-11T10:44:02.148Z,4.57
2022-08-11T10:46:47.647Z,4.28
2022-08-11T10:49:17.105Z,3.88
2022-08-11T10:52:04.797Z,3.40
2022-08-11T10:54:52.163Z,3.53
2022-08-11T10:57:38.904Z,3.53
2022-08-11T11:00:15.215Z,3.35
2022-08-11T11:02:44.455Z,4.22
2022-08-11T11:05:34.242Z,5.82
2022-08-11T11:08:32.870Z,5.15
2022-08-11T11:11:03.712Z,4.53
2022-08-11T11:13:54.987Z,6.78
2022-08-11T11:16:42.671Z,3.92
2022-08-11T11:19:12.483Z,5.95
2022-08-11T11:21:43.019Z,4.55
2022-08-11T11:24:23.566Z,5.50
2022-08-11T11:27:00.380Z,3.38
2022-08-11T11:29:43.700Z,6.25
2022-08-11T11:32:28.619Z,3.80
2022-08-11T11:35:11.946Z,7.80
2022-08-11T11:37:42.157Z,5.57
2022-08-11T11:40:32.319Z,6.35
2022-08-11T11:43:01.641Z,5.28
2022-08-11T11:45:30.762Z,6.68
2022-08-11T11:48:00.715Z,7.38
2022-08-11T11:50:31.693Z,5.32
2022-08-11T11:53:02.967Z,6.20
2022-08-11T11:55:34.008Z,7.85
2022-08-11T11:58:36.011Z,7.82
2022-08-11T12:01:17.453Z,3.67
2022-08-11T12:03:48.590Z,4.30
2022-08-11T12:06:19.961Z,3.13
2022-08-11T12:08:52.808Z,5.18
2022-08-11T12:11:43.522Z,6.90
2022-08-11T12:14:12.890Z,9.02
2022-08-11T12:16:44.473Z,5.40
2022-08-11T12:19:15.260Z,4.03
2022-08-11T12:22:00.620Z,5.10
2022-08-11T12:24:47.215Z,3.83
2022-08-11T12:27:25.756Z,7.63
2022-08-11T12:29:57.158Z,6.55
2022-08-11T12:32:28.826Z,5.65
2022-08-11T12:34:57.927Z,6.60
2022-08-11T12:37:31.861Z,7.10
2022-08-11T12:40:43.757Z,4.10
2022-08-11T12:43:38.280Z,4.65
2022-08-11T12:46:10.183Z,2.40
2022-08-11T12:49:08.168Z,5.68
2022-08-11T12:52:01.572Z,5.32
2022-08-11T12:54:59.705Z,3.47
2022-08-11T12:57:50.274Z,1.70
2022-08-11T13:00:38.887Z,4.65
2022-08-11T13:03:27.994Z,3.33
2022-08-11T13:05:58.780Z,3.05
2022-08-11T13:08:29.519Z,4.38
2022-08-11T13:11:18.354Z,4.47
2022-08-11T13:13:55.041Z,5.03
2022-08-11T13:16:31.675Z,3.70
2022-08-11T13:19:01.782Z,1.88
2022-08-11T13:21:31.072Z,6.20
2022-08-11T13:24:03.102Z,4.70
2022-08-11T13:26:47.633Z,3.72
2022-08-11T13:29:21.082Z,5.07
2022-08-11T13:31:52.524Z,3.38
2022-08-11T13:34:22.513Z,3.22
2022-08-11T13:36:53.470Z,7.93
2022-08-11T13:39:24.280Z,4.60
2022-08-11T13:41:56.800Z,5.85
2022-08-11T13:44:28.309Z,5.22
2022-08-11T13:47:02.398Z,3.50
2022-08-11T13:49:31.837Z,6.18
2022-08-11T13:52:01.529Z,5.20
2022-08-11T13:54:32.718Z,2.97
2022-08-11T13:57:08.019Z,7.38
2022-08-11T13:59:52.523Z,5.70
2022-08-11T14:02:30.277Z,5.07
2022-08-11T14:05:04.174Z,9.02
2022-08-11T14:07:36.905Z,4.47
2022-08-11T14:10:07.756Z,5.25
2022-08-11T14:12:55.867Z,2.92
2022-08-11T14:15:32.956Z,3.45
2022-08-11T14:18:06.355Z,3.40
2022-08-11T14:20:51.033Z,4.07
2022-08-11T14:23:21.120Z,5.25
2022-08-11T14:26:08.006Z,4.90
2022-08-11T14:28:41.999Z,4.75
2022-08-11T14:31:15.455Z,5.63
2022-08-11T14:33:58.222Z,4.65
2022-08-11T14:36:33.025Z,2.25
2022-08-11T14:39:04.889Z,3.85
2022-08-11T14:42:11.154Z,4.60
2022-08-11T14:45:00.442Z,6.53
2022-08-11T14:47:30.261Z,7.53
2022-08-11T14:50:10.312Z,5.78
2022-08-11T14:52:44.638Z,9.40
2022-08-11T14:55:33.790Z,7.20
2022-08-11T14:58:03.372Z,5.75
2022-08-11T15:00:33.159Z,6.45
2022-08-11T15:03:10.500Z,7.13
2022-08-11T15:05:56.794Z,4.72
2022-08-11T15:08:47.778Z,6.15
2022-08-11T15:11:36.116Z,6.50
2022-08-11T15:14:07.775Z,3.83
2022-08-11T15:16:56.089Z,4.70
2022-08-11T15:19:37.528Z,6.25
2022-08-11T15:22:29.557Z,6.57
2022-08-11T15:24:59.902Z,6.72
2022-08-11T15:27:48.564Z,7.50
2022-08-11T15:30:35.075Z,9.85
2022-08-11T15:33:25.929Z,6.88
2022-08-11T15:36:13.380Z,4.10
2022-08-11T15:38:45.919Z,5.65
2022-08-11T15:41:36.374Z,3.70
2022-08-11T15:44:51.428Z,3.75
2022-08-11T15:47:18.993Z,5.30
2022-08-11T15:50:11.056Z,3.40
2022-08-11T15:52:53.692Z,3.83
2022-08-11T15:55:25.576Z,3.55
2022-08-11T15:58:17.703Z,3.28
2022-08-11T16:01:08.977Z,4.53
2022-08-11T16:04:08.175Z,5.10
2022-08-11T16:06:43.977Z,3.10
2022-08-11T16:09:19.504Z,4.90
2022-08-11T16:11:50.521Z,5.38
2022-08-11T16:14:38.082Z,2.65
2022-08-11T16:17:10.793Z,4.40
2022-08-11T16:19:42.155Z,2.97
2022-08-11T16:22:12.746Z,7.80
2022-08-11T16:27:06.118Z,4.93
2022-08-11T16:27:39.728Z,3.95
2022-08-11T16:30:09.073Z,5.57
2022-08-11T16:32:41.375Z,5.72
2022-08-11T16:35:30.317Z,4.97
2022-08-11T16:38:18.188Z,4.30
2022-08-11T16:40:50.136Z,8.13
2022-08-11T16:43:40.914Z,5.82
2022-08-11T16:46:28.025Z,6.75
2022-08-11T16:48:57.754Z,12.45
2022-08-11T16:51:26.131Z,6.95
2022-08-11T16:54:05.360Z,5.45
2022-08-11T16:56:38.435Z,5.93
2022-08-11T16:59:15.331Z,6.18
2022-08-11T17:01:48.840Z,4.57
2022-08-11T17:04:48.575Z,5.82
2022-08-11T17:07:41.834Z,3.92
2022-08-11T17:10:51.242Z,5.07
2022-08-11T17:13:30.412Z,7.15
2022-08-11T17:16:11.903Z,8.13
2022-08-11T17:18:52.890Z,1.52
2022-08-11T17:21:26.232Z,4.97
2022-08-11T17:23:57.265Z,5.75
2022-08-11T17:26:49.184Z,6.75
2022-08-11T17:29:19.666Z,6.70
2022-08-11T17:32:08.505Z,5.00
2022-08-11T17:34:54.860Z,3.25
2022-08-11T17:37:25.965Z,4.82
2022-08-11T17:39:55.847Z,6.05
2022-08-11T17:42:46.141Z,5.50
2022-08-11T17:45:34.245Z,4.72
2022-08-11T17:48:23.095Z,3.45
2022-08-11T17:50:53.401Z,4.80
2022-08-11T17:53:39.886Z,6.75
2022-08-11T17:57:01.078Z,5.15
2022-08-11T17:59:49.139Z,5.05
2022-08-11T18:02:38.059Z,4.03
2022-08-11T18:05:12.970Z,6.68
2022-08-11T18:08:01.423Z,2.85
2022-08-11T18:10:49.884Z,9.00
2022-08-11T18:13:37.284Z,4.18
2022-08-11T18:16:23.522Z,10.95
2022-08-11T18:19:09.846Z,3.78
2022-08-11T18:22:08.177Z,3.35
2022-08-11T18:25:06.860Z,4.40
2022-08-11T18:27:54.776Z,5.63
2022-08-11T18:30:42.256Z,3.45
2022-08-11T18:33:56.618Z,10.60
2022-08-11T18:36:39.858Z,13.00
2022-08-11T18:39:30.696Z,7.20
2022-08-11T18:42:29.550Z,7.65
2022-08-11T18:45:19.982Z,6.75
2022-08-11T18:48:09.160Z,10.95
2022-08-11T18:51:30.055Z,8.10
2022-08-11T18:54:10.171Z,5.82
2022-08-11T18:56:58.262Z,3.22
2022-08-11T18:59:47.261Z,7.40
2022-08-11T19:02:49.152Z,7.05
2022-08-11T19:06:05.923Z,7.10
2022-08-11T19:08:49.121Z,8.65
2022-08-11T19:11:40.963Z,10.02
2022-08-11T19:14:31.573Z,7.72
2022-08-11T19:17:44.370Z,6.35
2022-08-11T19:20:28.559Z,15.48
2022-08-11T19:23:16.507Z,9.32
2022-08-11T19:26:03.425Z,7.57
2022-08-11T19:28:52.017Z,21.88
2022-08-11T19:31:44.022Z,24.15
2022-08-11T19:34:33.043Z,16.08
2022-08-11T19:37:24.028Z,18.75
2022-08-11T19:40:12.506Z,12.80
2022-08-11T19:42:59.410Z,14.02
2022-08-11T19:45:52.250Z,11.20
2022-08-11T19:48:42.744Z,8.90
2022-08-11T19:51:30.030Z,11.23
2022-08-11T19:54:17.085Z,13.35
2022-08-11T19:57:04.205Z,6.55
2022-08-11T19:59:51.717Z,10.85
2022-08-11T20:02:38.579Z,9.65
2022-08-11T20:05:27.228Z,8.30
2022-08-11T20:08:16.589Z,7.53
2022-08-11T20:11:05.854Z,7.05
2022-08-11T20:13:53.468Z,10.85
2022-08-11T20:16:41.113Z,7.97
2022-08-11T20:19:55.646Z,11.55
2022-08-11T20:22:37.136Z,9.18
2022-08-11T20:25:25.025Z,9.02
2022-08-11T20:28:11.969Z,9.98
2022-08-11T20:30:59.435Z,14.45
2022-08-11T20:33:45.038Z,9.63
2022-08-11T20:36:32.944Z,9.85
2022-08-11T20:39:21.635Z,12.95
2022-08-11T20:42:08.539Z,10.05
2022-08-11T20:44:57.786Z,10.20
2022-08-11T20:47:56.833Z,12.38
2022-08-11T20:50:46.677Z,12.23
2022-08-11T20:53:39.232Z,10.07
2022-08-11T20:56:30.068Z,14.10
2022-08-11T20:59:21.627Z,12.57
2022-08-11T21:02:10.542Z,9.95
2022-08-11T21:05:00.042Z,16.67
2022-08-11T21:07:56.712Z,10.23
2022-08-11T21:10:51.418Z,11.00
2022-08-11T21:13:41.594Z,14.25
2022-08-11T21:16:31.070Z,12.18
2022-08-11T21:20:00.793Z,12.18
2022-08-11T21:22:35.926Z,11.57
2022-08-11T21:25:25.748Z,13.25
2022-08-11T21:28:17.087Z,10.95
2022-08-11T21:31:04.371Z,12.23
2022-08-11T21:33:51.278Z,12.50
2022-08-11T21:36:38.357Z,12.02
2022-08-11T21:39:26.459Z,15.00
2022-08-11T21:42:13.397Z,15.85
2022-08-11T21:45:01.483Z,12.82
2022-08-11T21:47:49.962Z,11.85
2022-08-11T21:50:47.362Z,13.63
2022-08-11T21:53:34.069Z,13.75
2022-08-11T21:56:20.484Z,17.80
2022-08-11T21:59:07.987Z,11.80
2022-08-11T22:01:55.067Z,13.93
2022-08-11T22:04:43.622Z,13.55
2022-08-11T22:07:30.534Z,15.85
2022-08-11T22:10:40.133Z,17.40
2022-08-11T22:13:27.052Z,19.85
2022-08-11T22:16:13.166Z,14.27
2022-08-11T22:18:59.558Z,20.88
2022-08-11T22:22:03.447Z,18.27
2022-08-11T22:24:52.738Z,16.08
2022-08-11T22:27:39.016Z,13.77
2022-08-11T22:30:26.173Z,16.83
2022-08-11T22:33:13.833Z,18.25
2022-08-11T22:36:03.367Z,15.68
2022-08-11T22:38:53.230Z,19.23
2022-08-11T22:41:40.046Z,15.90
2022-08-11T22:44:26.508Z,20.27
2022-08-11T22:47:15.155Z,17.08
2022-08-11T22:50:09.229Z,14.52
2022-08-11T22:52:55.668Z,18.40
2022-08-11T22:55:44.360Z,17.67
2022-08-11T22:58:32.928Z,22.27
2022-08-11T23:01:19.067Z,15.80
2022-08-11T23:04:05.862Z,19.58
2022-08-11T23:06:53.803Z,16.30
2022-08-11T23:09:41.645Z,16.88
2022-08-11T23:12:30.030Z,18.45
2022-08-11T23:15:17.755Z,14.50
2022-08-11T23:18:03.710Z,16.00
2022-08-11T23:20:53.066Z,16.65
2022-08-11T23:23:43.030Z,21.83
2022-08-11T23:26:30.046Z,20.83
2022-08-11T23:29:18.629Z,23.65
2022-08-11T23:32:05.916Z,16.73
2022-08-11T23:35:04.473Z,16.52
2022-08-11T23:38:02.485Z,21.00
2022-08-11T23:40:48.261Z,19.65
2022-08-11T23:43:41.141Z,14.90
2022-08-11T23:46:28.960Z,15.70
2022-08-11T23:49:17.861Z,19.50
2022-08-11T23:52:04.758Z,25.77
2022-08-11T23:54:52.029Z,13.70
2022-08-11T23:57:38.342Z,21.50
